Time;durP1;ratioP1;P1;durP2;ratioP2;P2;SDS_P1;SDS_P2;PMS_P1;PMS_P2;Temp;Humidity;BMP_temperature;BMP_pressure;BME280_temperature;BME280_humidity;BME280_pressure;Samples;Min_cycle;Max_cycle;Signal;HPM_P1;HPM_P2
2023/12/27 01:59:11;;;;;;;0.60;0.60;;;;;;;10.15;86.89;100658.19;770639;23;20327;-87
2023/12/27 02:01:37;;;;;;;0.80;0.80;;;;;;;10.61;87.15;100722.78;4973656;28;20049;-93
2023/12/27 02:04:03;;;;;;;0.60;0.60;;;;;;;10.62;86.89;100730.75;4967268;28;20035;-92
2023/12/27 02:06:28;;;;;;;0.70;0.70;;;;;;;10.58;87.47;100715.78;4958868;29;20039;-93
2023/12/27 02:08:54;;;;;;;0.70;0.70;;;;;;;10.50;86.83;100701.75;4970301;28;20050;-91
2023/12/27 02:11:20;;;;;;;0.70;0.70;;;;;;;10.64;87.42;100723.59;4970755;28;20030;-92
2023/12/27 02:13:45;;;;;;;0.80;0.80;;;;;;;10.61;86.79;100721.00;4971081;28;20027;-92
2023/12/27 02:16:11;;;;;;;0.70;0.70;;;;;;;10.28;87.31;100667.69;4972605;28;20033;-91
2023/12/27 02:18:37;;;;;;;0.80;0.80;;;;;;;10.46;87.87;100713.34;4972336;28;20034;-92
2023/12/27 02:21:03;;;;;;;0.70;0.70;;;;;;;10.55;86.98;100734.47;4971210;28;20026;-92
2023/12/27 02:23:31;;;;;;;0.70;0.70;;;;;;;10.44;87.04;100723.16;4972337;28;20125;-91
2023/12/27 02:25:57;;;;;;;0.80;0.80;;;;;;;10.49;87.65;100723.94;4971839;28;20812;-93
2023/12/27 02:28:23;;;;;;;0.70;0.70;;;;;;;10.53;87.70;100736.28;4973288;28;20039;-92
2023/12/27 02:30:48;;;;;;;0.70;0.70;;;;;;;10.49;87.60;100718.59;4972981;28;20026;-93
2023/12/27 02:33:13;;;;;;;0.80;0.80;;;;;;;10.50;87.75;100725.69;4973232;28;20033;-93
2023/12/27 02:35:39;;;;;;;0.80;0.80;;;;;;;10.37;88.05;100691.41;4972465;28;20033;-92
2023/12/27 02:38:05;;;;;;;0.70;0.70;;;;;;;10.48;87.56;100727.50;4985477;28;20023;-91
2023/12/27 02:40:30;;;;;;;0.68;0.68;;;;;;;10.52;87.92;100734.53;4976498;28;20031;-92
2023/12/27 02:42:55;;;;;;;0.70;0.70;;;;;;;10.38;88.13;100717.97;4971310;29;20031;-93
2023/12/27 02:45:21;;;;;;;0.70;0.70;;;;;;;10.38;88.74;100712.66;4977169;28;20026;-91
2023/12/27 02:47:46;;;;;;;0.70;0.70;;;;;;;10.39;88.34;100698.44;4989278;28;20030;-91
2023/12/27 02:50:12;;;;;;;0.60;0.60;;;;;;;10.49;88.44;100713.28;4989299;28;20041;-92
2023/12/27 02:52:37;;;;;;;0.70;0.70;;;;;;;10.41;89.10;100693.97;4985594;28;20030;-93
2023/12/27 02:55:03;;;;;;;0.80;0.80;;;;;;;10.47;89.77;100706.25;4987762;28;20472;-93
2023/12/27 02:57:28;;;;;;;0.80;0.80;;;;;;;10.48;89.33;100713.31;4991650;28;20038;-92
2023/12/27 02:59:54;;;;;;;0.70;0.70;;;;;;;10.30;89.09;100682.69;4993641;28;20125;-94
2023/12/27 03:02:20;;;;;;;0.60;0.60;;;;;;;10.42;89.00;100700.16;4993037;28;20175;-93
2023/12/27 03:04:45;;;;;;;0.80;0.80;;;;;;;10.12;89.41;100648.50;5012070;28;20034;-92
2023/12/27 03:07:11;;;;;;;0.70;0.70;;;;;;;10.35;89.27;100686.13;4981155;28;20030;-92
2023/12/27 03:09:37;;;;;;;0.70;0.70;;;;;;;10.38;88.83;100704.66;4993075;28;20026;-93
2023/12/27 03:12:02;;;;;;;0.80;0.80;;;;;;;10.33;88.85;100706.53;4991685;28;20060;-93
2023/12/27 03:14:28;;;;;;;0.70;0.70;;;;;;;10.40;89.07;100694.00;4992643;28;20554;-92
2023/12/27 03:16:53;;;;;;;0.80;0.80;;;;;;;10.48;89.68;100706.22;4987373;28;20029;-92
2023/12/27 03:19:19;;;;;;;0.80;0.80;;;;;;;10.41;89.49;100693.97;4977065;28;20133;-92
2023/12/27 03:21:44;;;;;;;0.70;0.70;;;;;;;10.36;89.31;100679.03;4998816;28;20065;-91
2023/12/27 03:24:10;;;;;;;0.70;0.70;;;;;;;10.35;89.07;100694.09;4990108;28;20061;-93
2023/12/27 03:26:35;;;;;;;0.70;0.70;;;;;;;10.30;88.91;100693.31;4991427;28;20098;-92
2023/12/27 03:29:01;;;;;;;0.80;0.80;;;;;;;10.26;89.63;100683.63;4989538;28;20026;-93
2023/12/27 03:31:28;;;;;;;0.70;0.70;;;;;;;10.21;89.44;100674.88;5010109;28;20056;-92
2023/12/27 03:33:57;;;;;;;0.73;0.73;;;;;;;10.21;89.31;100669.56;4996303;28;20032;-92
2023/12/27 03:36:24;;;;;;;0.80;0.80;;;;;;;10.27;88.86;100680.09;4987523;28;20026;-93
2023/12/27 03:38:49;;;;;;;0.70;0.70;;;;;;;10.22;89.15;100660.69;4993028;28;20053;-92
2023/12/27 03:41:15;;;;;;;0.80;0.80;;;;;;;10.22;89.25;100654.50;4993677;28;20018;-92
2023/12/27 03:43:41;;;;;;;0.77;0.77;;;;;;;10.35;88.97;100679.91;4988513;28;20033;-93
2023/12/27 03:46:06;;;;;;;0.70;0.70;;;;;;;10.21;88.88;100652.75;4996882;28;20085;-92
2023/12/27 03:48:32;;;;;;;0.70;0.70;;;;;;;10.05;87.91;100630.91;4989962;28;20030;-93
2023/12/27 03:50:57;;;;;;;0.70;0.70;;;;;;;10.23;88.05;100659.78;4972154;28;20015;-91
2023/12/27 03:53:23;;;;;;;0.60;0.60;;;;;;;10.22;88.13;100654.50;4974349;28;20027;-92
2023/12/27 03:55:48;;;;;;;0.77;0.77;;;;;;;10.14;88.18;100652.00;4991436;28;20030;-92
2023/12/27 03:58:13;;;;;;;0.70;0.70;;;;;;;10.15;87.78;100664.38;4991451;28;20026;-93
2023/12/27 04:00:39;;;;;;;0.60;0.60;;;;;;;9.92;87.51;100625.84;4991345;28;20057;-93
2023/12/27 04:03:04;;;;;;;0.70;0.70;;;;;;;10.16;88.00;100654.63;4994476;28;20026;-93
2023/12/27 04:05:30;;;;;;;0.60;0.60;;;;;;;10.18;87.76;100652.84;4992826;28;20023;-93
2023/12/27 04:07:55;;;;;;;0.73;0.73;;;;;;;10.02;87.84;100623.00;4985050;28;20038;-93
2023/12/27 04:10:31;;;;;;;0.70;0.70;;;;;;;10.17;87.78;100649.28;4992379;28;20022;-92
2023/12/27 04:12:57;;;;;;;0.80;0.80;;;;;;;10.16;88.43;100650.22;4987809;28;20113;-92
2023/12/27 04:15:23;;;;;;;0.80;0.80;;;;;;;10.18;88.75;100644.84;5006096;28;20034;-92
2023/12/27 04:17:48;;;;;;;0.70;0.70;;;;;;;10.19;89.01;100633.31;4989928;28;20033;-93
2023/12/27 04:20:14;;;;;;;0.60;0.60;;;;;;;10.24;89.14;100640.28;4990972;28;20021;-93
2023/12/27 04:22:39;;;;;;;0.70;0.70;;;;;;;10.14;89.10;100624.56;4983812;28;20051;-93
2023/12/27 04:25:05;;;;;;;0.60;0.60;;;;;;;10.08;89.30;100614.91;4974496;28;20063;-92
2023/12/27 04:27:30;;;;;;;0.70;0.70;;;;;;;10.24;89.53;100639.41;4979891;28;20030;-93
2023/12/27 04:29:56;;;;;;;0.80;0.80;;;;;;;10.29;89.53;100651.69;4977575;28;20061;-93
2023/12/27 04:32:21;;;;;;;0.77;0.77;;;;;;;10.20;89.26;100651.00;4978177;28;20015;-92
2023/12/27 04:34:47;;;;;;;0.70;0.70;;;;;;;10.17;88.82;100646.63;4993447;28;20026;-93
2023/12/27 04:37:12;;;;;;;0.70;0.70;;;;;;;10.27;88.75;100652.63;4992640;28;20018;-92
2023/12/27 04:39:38;;;;;;;0.70;0.70;;;;;;;10.20;88.64;100656.31;4981224;28;20079;-92
2023/12/27 04:42:03;;;;;;;0.80;0.80;;;;;;;10.24;89.30;100658.91;4975499;28;20022;-92
2023/12/27 04:44:29;;;;;;;0.70;0.70;;;;;;;10.18;89.02;100656.34;4973721;28;20023;-91
2023/12/27 04:46:54;;;;;;;0.75;0.75;;;;;;;9.68;88.92;100571.44;5016759;28;20025;-93
2023/12/27 04:49:20;;;;;;;0.80;0.80;;;;;;;10.28;88.00;100651.72;4991162;28;20027;-92
2023/12/27 04:51:46;;;;;;;0.70;0.70;;;;;;;10.19;88.19;100633.31;4986707;28;20039;-93
2023/12/27 04:54:12;;;;;;;0.80;0.80;;;;;;;10.19;88.17;100650.13;4976439;28;20041;-92
2023/12/27 04:56:37;;;;;;;0.70;0.70;;;;;;;10.18;88.35;100647.53;4995788;28;20050;-94
2023/12/27 04:59:02;;;;;;;0.60;0.60;;;;;;;10.09;88.73;100643.25;4980068;28;20093;-93
2023/12/27 05:01:28;;;;;;;0.70;0.70;;;;;;;10.07;88.08;100634.41;4989510;28;20050;-93
2023/12/27 05:03:53;;;;;;;0.80;0.80;;;;;;;10.05;88.89;100635.34;4995341;28;20026;-93
2023/12/27 05:06:19;;;;;;;0.60;0.60;;;;;;;9.83;88.54;100608.34;4994957;28;20036;-93
2023/12/27 05:08:44;;;;;;;0.70;0.70;;;;;;;10.04;88.75;100633.59;4992391;28;20018;-92
2023/12/27 05:11:15;;;;;;;0.70;0.70;;;;;;;9.90;89.44;100625.88;4996208;28;20022;-92
2023/12/27 05:13:41;;;;;;;0.70;0.70;;;;;;;9.91;89.32;100637.41;4986560;28;20123;-93
2023/12/27 05:16:15;;;;;;;0.70;0.70;;;;;;;9.85;90.17;100637.53;4993029;28;20034;-93
2023/12/27 05:18:42;;;;;;;0.70;0.70;;;;;;;9.84;89.50;100646.38;5012825;28;20026;-92
2023/12/27 05:21:10;;;;;;;0.70;0.70;;;;;;;9.78;90.88;100658.03;5008637;28;20046;-93
2023/12/27 05:23:36;;;;;;;0.80;0.80;;;;;;;9.58;91.07;100633.63;4994980;28;20439;-92
2023/12/27 05:26:03;;;;;;;0.80;0.80;;;;;;;9.63;91.48;100650.34;4993100;28;20026;-93
2023/12/27 05:28:28;;;;;;;0.80;0.80;;;;;;;9.43;91.88;100638.31;4991263;28;20078;-92
2023/12/27 05:30:54;;;;;;;0.80;0.80;;;;;;;9.31;91.85;100619.06;4993362;28;20117;-91
2023/12/27 05:33:19;;;;;;;0.70;0.70;;;;;;;9.35;92.39;100633.16;4995920;28;20036;-93
2023/12/27 05:35:45;;;;;;;0.73;0.73;;;;;;;9.35;93.04;100625.19;4989221;28;20057;-93
2023/12/27 05:38:11;;;;;;;0.70;0.70;;;;;;;9.15;93.15;100600.78;4972207;28;20057;-92
2023/12/27 05:40:37;;;;;;;0.80;0.80;;;;;;;9.27;93.65;100619.16;4972627;28;20091;-93
2023/12/27 05:43:02;;;;;;;0.80;0.80;;;;;;;9.03;94.29;100580.66;4990345;28;20050;-93
2023/12/27 05:45:28;;;;;;;0.70;0.70;;;;;;;9.20;94.38;100609.53;5005446;28;20023;-93
2023/12/27 05:47:53;;;;;;;0.70;0.70;;;;;;;9.06;94.27;100596.50;5010161;28;20416;-93
2023/12/27 05:50:19;;;;;;;0.60;0.60;;;;;;;8.98;94.76;100600.19;4987283;28;20031;-94
2023/12/27 05:52:45;;;;;;;0.70;0.70;;;;;;;9.03;95.13;100619.56;4974139;28;20026;-93
2023/12/27 05:55:10;;;;;;;0.70;0.70;;;;;;;8.76;95.93;100593.50;4974692;28;20027;-93
2023/12/27 05:57:36;;;;;;;0.70;0.70;;;;;;;8.72;96.06;100605.03;4979629;28;20880;-93
2023/12/27 06:00:02;;;;;;;0.60;0.60;;;;;;;8.66;96.71;100595.44;4991795;28;20082;-94
2023/12/27 06:02:27;;;;;;;0.60;0.60;;;;;;;8.70;97.51;100622.75;4991104;28;20201;-93
2023/12/27 06:04:55;;;;;;;0.70;0.70;;;;;;;8.65;97.75;100609.56;4993669;28;20045;-94
2023/12/27 06:07:21;;;;;;;0.80;0.80;;;;;;;8.53;98.04;100600.94;4990094;28;20053;-94
2023/12/27 06:09:46;;;;;;;0.70;0.70;;;;;;;8.49;98.33;100618.66;4993004;28;20073;-93
2023/12/27 06:12:12;;;;;;;0.80;0.80;;;;;;;8.45;98.69;100626.69;5010691;28;20010;-94
2023/12/27 06:14:38;;;;;;;0.70;0.70;;;;;;;8.29;98.48;100609.22;4994840;28;20054;-93
2023/12/27 06:17:04;;;;;;;0.80;0.80;;;;;;;8.25;99.16;100597.81;4988032;28;20031;-93
2023/12/27 06:19:34;;;;;;;0.70;0.70;;;;;;;8.41;99.31;100624.97;4977218;28;20031;-94
2023/12/27 06:22:00;;;;;;;0.75;0.75;;;;;;;8.42;99.58;100632.03;4973471;28;20031;-93
2023/12/27 06:24:25;;;;;;;0.70;0.70;;;;;;;8.32;100.00;100622.47;4978030;28;20042;-94
2023/12/27 06:26:51;;;;;;;0.80;0.80;;;;;;;8.19;99.87;100607.59;4996372;28;20085;-94
2023/12/27 06:29:16;;;;;;;0.75;0.75;;;;;;;8.33;100.00;100627.75;4996300;28;20021;-95
2023/12/27 06:31:42;;;;;;;0.80;0.80;;;;;;;8.16;100.00;100603.19;5008029;28;20025;-95
2023/12/27 06:34:07;;;;;;;0.80;0.80;;;;;;;8.24;100.00;100627.84;4993950;28;20026;-95
2023/12/27 06:36:33;;;;;;;0.70;0.70;;;;;;;8.26;100.00;100619.88;4990349;28;20090;-94
2023/12/27 06:38:58;;;;;;;0.60;0.60;;;;;;;8.24;100.00;100627.00;4991662;28;20037;-94
2023/12/27 06:41:24;;;;;;;0.80;0.80;;;;;;;8.24;100.00;100629.66;4995640;28;20026;-95
2023/12/27 06:46:24;;;;;;;0.80;0.80;;;;;;;8.17;100.00;100610.22;5006822;23;20116;-95
2023/12/27 06:48:50;;;;;;;0.70;0.70;;;;;;;8.27;100.00;100611.91;4990315;28;20038;-92
2023/12/27 06:51:15;;;;;;;0.70;0.70;;;;;;;8.00;100.00;100568.09;4990141;28;20018;-95
2023/12/27 06:53:41;;;;;;;0.80;0.80;;;;;;;8.22;100.00;100591.66;4985134;28;20034;-93
2023/12/27 06:56:06;;;;;;;0.70;0.70;;;;;;;8.27;100.00;100611.03;4996750;28;20037;-94
2023/12/27 06:58:32;;;;;;;0.70;0.70;;;;;;;8.17;100.00;100589.03;4986777;28;20049;-93
2023/12/27 07:00:57;;;;;;;0.80;0.80;;;;;;;8.12;100.00;100595.31;4980593;28;20027;-94
2023/12/27 07:03:25;;;;;;;0.70;0.70;;;;;;;8.02;100.00;100582.19;4969369;28;20027;-94
2023/12/27 07:05:51;;;;;;;0.70;0.70;;;;;;;8.13;100.00;100607.66;4970655;28;20018;-94
2023/12/27 07:08:16;;;;;;;0.73;0.73;;;;;;;7.95;100.00;100588.47;4970009;28;20119;-93
2023/12/27 07:10:42;;;;;;;0.73;0.73;;;;;;;7.91;100.00;100581.44;4969446;28;20019;-93
2023/12/27 07:13:08;;;;;;;0.60;0.60;;;;;;;8.01;100.00;100608.69;4971216;28;20034;-94
2023/12/27 07:15:34;;;;;;;0.80;0.80;;;;;;;7.92;100.00;100601.72;4970632;28;20042;-94
2023/12/27 07:18:00;;;;;;;0.80;0.80;;;;;;;7.91;100.00;100605.28;4966789;29;20023;-94
2023/12/27 07:20:25;;;;;;;0.80;0.80;;;;;;;7.63;100.00;100587.97;4949337;29;20019;-93
2023/12/27 07:22:51;;;;;;;0.70;0.70;;;;;;;7.73;100.00;100589.63;4962475;28;20115;-93
2023/12/27 07:25:16;;;;;;;0.75;0.75;;;;;;;7.80;100.00;100599.25;4971200;28;20019;-94
2023/12/27 07:27:42;;;;;;;0.80;0.80;;;;;;;7.81;100.00;100622.19;4970133;28;20074;-93
2023/12/27 07:30:08;;;;;;;0.80;0.80;;;;;;;7.66;100.00;100606.47;4966328;28;20047;-94
2023/12/27 07:32:33;;;;;;;0.75;0.75;;;;;;;7.70;100.00;100613.50;4967568;28;20034;-94
2023/12/27 07:34:59;;;;;;;0.70;0.70;;;;;;;7.76;100.00;100618.72;4968900;28;20440;-94
2023/12/27 07:37:24;;;;;;;0.70;0.70;;;;;;;7.54;100.00;100606.63;4970169;28;20031;-93
2023/12/27 07:39:50;;;;;;;0.70;0.70;;;;;;;7.64;100.00;100610.91;4968370;28;20034;-92
2023/12/27 07:42:16;;;;;;;0.70;0.70;;;;;;;7.68;100.00;100623.22;4967203;28;20027;-93
2023/12/27 07:44:41;;;;;;;0.80;0.80;;;;;;;7.56;100.00;100599.53;4969939;28;20031;-94
2023/12/27 07:47:07;;;;;;;0.70;0.70;;;;;;;7.72;100.00;100624.06;4986271;28;20050;-94
2023/12/27 07:49:33;;;;;;;0.80;0.80;;;;;;;7.90;100.00;100653.88;4988536;28;20038;-94
2023/12/27 07:51:58;;;;;;;0.80;0.80;;;;;;;7.79;100.00;100629.25;4989229;28;20018;-94
2023/12/27 07:54:24;;;;;;;0.65;0.65;;;;;;;7.73;100.00;100596.69;4985835;28;20034;-94
2023/12/27 07:56:49;;;;;;;0.80;0.80;;;;;;;7.69;100.00;100574.66;4989092;28;20053;-94
2023/12/27 07:59:15;;;;;;;0.80;0.80;;;;;;;8.02;100.00;100613.97;4982830;28;20031;-94
2023/12/27 08:01:40;;;;;;;0.70;0.70;;;;;;;7.74;100.00;100554.31;4979530;28;20027;-92
2023/12/27 08:04:06;;;;;;;0.60;0.60;;;;;;;7.81;100.00;100557.75;4998135;28;20021;-94
2023/12/27 08:06:31;;;;;;;0.80;0.80;;;;;;;8.20;100.00;100614.63;4999225;28;20033;-93
2023/12/27 08:08:57;;;;;;;0.70;0.70;;;;;;;8.13;100.00;100602.34;4989669;28;20034;-94
2023/12/27 08:11:23;;;;;;;0.80;0.80;;;;;;;8.34;100.00;100628.59;4971028;28;20014;-93
2023/12/27 08:13:49;;;;;;;0.70;0.70;;;;;;;8.36;100.00;100616.19;4968715;28;20018;-93
2023/12/27 08:16:14;;;;;;;0.80;0.80;;;;;;;8.56;100.00;100640.66;4983582;28;20033;-93
2023/12/27 08:18:39;;;;;;;0.80;0.80;;;;;;;8.57;100.00;100611.47;5002938;28;20037;-94
2023/12/27 08:21:05;;;;;;;0.80;0.80;;;;;;;8.64;100.00;100612.25;5006660;28;20117;-93
2023/12/27 08:23:31;;;;;;;0.70;0.70;;;;;;;8.63;100.00;100599.91;4995169;28;20019;-93
2023/12/27 08:25:57;;;;;;;0.70;0.70;;;;;;;8.69;100.00;100600.69;4986883;28;20101;-93
2023/12/27 08:28:23;;;;;;;0.80;0.80;;;;;;;8.67;100.00;100580.38;4985020;28;20026;-93
2023/12/27 08:30:49;;;;;;;0.90;0.90;;;;;;;8.72;100.00;100584.72;4989130;28;20045;-93
2023/12/27 08:33:15;;;;;;;0.70;0.70;;;;;;;8.96;100.00;100578.13;4966692;28;20022;-93
2023/12/27 08:35:41;;;;;;;0.80;0.80;;;;;;;9.16;99.89;100592.78;4977856;28;20026;-93
2023/12/27 08:38:08;;;;;;;0.80;0.80;;;;;;;9.06;98.14;100571.78;4998888;28;20113;-93
2023/12/27 08:40:33;;;;;;;0.70;0.70;;;;;;;9.10;97.04;100570.78;5003754;28;20026;-93
2023/12/27 08:42:59;;;;;;;0.80;0.80;;;;;;;9.12;96.39;100561.03;5001354;28;20029;-94
2023/12/27 08:45:24;;;;;;;0.70;0.70;;;;;;;9.29;96.94;100574.88;4985933;28;20048;-92
2023/12/27 08:47:50;;;;;;;0.70;0.70;;;;;;;9.27;96.77;100552.81;4983488;28;20034;-92
2023/12/27 08:50:15;;;;;;;0.70;0.70;;;;;;;9.64;96.63;100563.59;4983516;28;20018;-93
2023/12/27 08:52:40;;;;;;;0.70;0.70;;;;;;;10.25;99.10;100580.88;4983397;28;20025;-93
2023/12/27 08:55:08;;;;;;;0.70;0.70;;;;;;;12.01;99.93;100554.06;4982365;28;20022;-92
2023/12/27 08:57:34;;;;;;;0.60;0.60;;;;;;;14.17;83.08;100550.13;5002234;28;20058;-92
2023/12/27 09:00:00;;;;;;;0.60;0.60;;;;;;;15.39;67.25;100583.50;5020917;28;20041;-93
2023/12/27 09:02:25;;;;;;;0.57;0.57;;;;;;;15.94;60.65;100597.16;4981333;28;20026;-91
2023/12/27 09:04:51;;;;;;;0.50;0.50;;;;;;;16.66;58.22;100583.00;4984059;28;20111;-92
2023/12/27 09:07:16;;;;;;;0.40;0.40;;;;;;;17.82;53.30;100595.91;4966977;28;20019;-92
2023/12/27 09:09:42;;;;;;;0.40;0.40;;;;;;;18.66;51.11;100593.94;4985531;28;20029;-91
2023/12/27 09:12:07;;;;;;;0.40;0.40;;;;;;;20.01;47.71;100600.25;4986840;28;20126;-92
2023/12/27 09:14:33;;;;;;;0.30;0.30;;;;;;;19.90;44.54;100606.31;4988063;28;20034;-92
2023/12/27 09:16:58;;;;;;;0.30;0.30;;;;;;;19.76;45.64;100608.13;4990241;28;20090;-92
2023/12/27 09:19:23;;;;;;;0.40;0.40;;;;;;;19.10;45.77;100585.97;4992023;28;20018;-94
2023/12/27 09:53:35;;;;;;;0.50;0.50;;;;;;;14.34;65.66;100507.56;772654;23;20311;-89
2023/12/27 09:56:01;;;;;;;0.50;0.50;;;;;;;15.81;57.10;100525.25;4967791;28;20051;-94
2023/12/27 09:58:30;;;;;;;0.50;0.50;;;;;;;17.69;50.45;100539.16;4950574;29;20038;-93
2023/12/27 10:00:58;;;;;;;0.50;0.50;;;;;;;18.66;47.39;100526.56;4948965;29;20031;-93
2023/12/27 10:03:40;;;;;;;0.50;0.50;;;;;;;19.66;44.35;100537.63;4954808;29;20846;-92
2023/12/27 10:06:29;;;;;;;0.50;0.50;;;;;;;19.92;43.51;100544.13;4960437;28;20050;-94
2023/12/27 10:08:55;;;;;;;0.50;0.50;;;;;;;19.84;43.37;100525.69;4966233;29;20030;-93
2023/12/27 10:11:22;;;;;;;0.50;0.50;;;;;;;19.75;44.13;100515.47;4967914;29;20029;-93
2023/12/27 10:13:50;;;;;;;0.40;0.40;;;;;;;19.13;44.06;100503.06;4960262;28;20023;-93
2023/12/27 10:16:15;;;;;;;0.43;0.43;;;;;;;18.44;45.37;100515.25;4972248;28;20031;-93
2023/12/27 10:18:45;;;;;;;0.40;0.40;;;;;;;17.58;46.75;100530.78;4971905;28;20063;-94
2023/12/27 10:21:10;;;;;;;0.43;0.43;;;;;;;17.98;48.07;100533.09;4972155;28;20035;-91
2023/12/27 10:23:36;;;;;;;0.40;0.40;;;;;;;18.66;46.24;100510.41;4965791;28;20031;-91
2023/12/27 10:26:02;;;;;;;0.40;0.40;;;;;;;19.47;44.71;100481.22;4951995;29;20027;-91
2023/12/27 10:28:28;;;;;;;0.40;0.40;;;;;;;20.08;42.41;100501.69;4954431;28;20033;-90
2023/12/27 10:30:53;;;;;;;0.40;0.40;;;;;;;19.87;42.37;100474.19;4955027;29;20031;-91
2023/12/27 10:33:20;;;;;;;0.30;0.30;;;;;;;19.51;43.94;100506.19;4967813;28;20033;-90
2023/12/27 10:35:49;;;;;;;0.40;0.40;;;;;;;19.03;43.40;100498.31;4959199;29;20011;-90
2023/12/27 10:38:15;;;;;;;0.40;0.40;;;;;;;18.86;43.45;100484.97;4951671;29;20051;-89
2023/12/27 10:40:41;;;;;;;0.40;0.40;;;;;;;19.28;45.00;100460.81;4967207;28;20082;-90
2023/12/27 10:43:09;;;;;;;0.40;0.40;;;;;;;19.89;42.99;100458.78;4961180;29;20023;-90
2023/12/27 10:45:36;;;;;;;0.30;0.30;;;;;;;20.06;42.85;100457.69;4956979;28;20083;-91
2023/12/27 10:48:04;;;;;;;0.30;0.30;;;;;;;19.62;42.76;100449.69;4970770;28;20031;-89
2023/12/27 10:50:31;;;;;;;0.40;0.40;;;;;;;18.88;45.41;100467.75;4986304;28;20128;-91
2023/12/27 10:53:04;;;;;;;0.30;0.30;;;;;;;18.58;45.66;100466.00;4972407;28;20017;-93
2023/12/27 10:55:32;;;;;;;0.40;0.40;;;;;;;18.47;45.13;100447.75;4974689;28;20089;-90
2023/12/27 10:58:00;;;;;;;0.40;0.40;;;;;;;18.66;45.86;100442.16;4991141;28;20034;-90
2023/12/27 11:00:26;;;;;;;0.40;0.40;;;;;;;18.60;45.82;100450.59;5003659;28;21278;-90
2023/12/27 11:02:53;;;;;;;0.40;0.40;;;;;;;18.82;44.79;100434.88;4987751;28;20033;-91
2023/12/27 11:05:22;;;;;;;0.32;0.32;;;;;;;19.25;45.12;100444.81;4988320;28;20394;-90
2023/12/27 11:07:50;;;;;;;0.40;0.40;;;;;;;18.73;44.59;100432.75;4991020;28;20098;-91
2023/12/27 11:10:16;;;;;;;0.40;0.40;;;;;;;18.32;46.54;100441.38;4990557;28;20034;-91
2023/12/27 11:12:49;;;;;;;0.30;0.30;;;;;;;17.49;46.59;100410.25;4989727;28;20289;-92
2023/12/27 11:15:15;;;;;;;0.40;0.40;;;;;;;16.75;48.57;100421.38;4989972;28;20034;-92
2023/12/27 11:17:41;;;;;;;0.40;0.40;;;;;;;16.56;50.40;100420.56;4989428;28;20026;-91
2023/12/27 11:20:10;;;;;;;0.40;0.40;;;;;;;16.02;49.84;100401.78;4989878;28;20033;-92
2023/12/27 11:22:38;;;;;;;0.40;0.40;;;;;;;16.11;49.92;100412.09;5005533;28;20034;-92
2023/12/27 11:25:05;;;;;;;0.43;0.43;;;;;;;15.76;51.41;100371.72;5002724;28;20029;-92
2023/12/27 11:27:31;;;;;;;0.30;0.30;;;;;;;16.04;51.55;100400.78;5010795;28;20025;-92
2023/12/27 11:29:57;;;;;;;0.40;0.40;;;;;;;15.40;53.38;100354.69;5008313;28;20068;-92
2023/12/27 11:32:24;;;;;;;0.40;0.40;;;;;;;15.52;53.04;100375.56;5007850;28;20038;-91
2023/12/27 11:34:50;;;;;;;0.40;0.40;;;;;;;15.19;53.75;100370.88;4987114;28;20033;-91
2023/12/27 11:37:16;;;;;;;0.40;0.40;;;;;;;15.07;55.65;100391.06;4988016;28;20034;-91
2023/12/27 11:39:47;;;;;;;0.40;0.40;;;;;;;14.87;55.48;100368.78;4985905;28;20030;-91
2023/12/27 11:42:15;;;;;;;0.40;0.40;;;;;;;14.65;55.86;100309.94;4989441;28;20090;-93
2023/12/27 11:44:47;;;;;;;0.40;0.40;;;;;;;15.10;56.88;100355.22;4986075;28;20087;-92
2023/12/27 11:47:15;;;;;;;0.40;0.40;;;;;;;15.20;56.62;100352.06;4990096;28;20382;-90
2023/12/27 11:49:40;;;;;;;0.40;0.40;;;;;;;15.32;55.54;100313.09;5007996;28;20021;-92
2023/12/27 11:52:05;;;;;;;0.40;0.40;;;;;;;15.59;54.39;100350.22;4979688;28;20034;-93
2023/12/27 11:54:31;;;;;;;0.40;0.40;;;;;;;15.64;54.60;100299.91;4970660;28;20080;-93
2023/12/27 11:56:58;;;;;;;0.40;0.40;;;;;;;15.97;53.87;100331.38;4972108;28;20018;-93
2023/12/27 11:59:26;;;;;;;0.40;0.40;;;;;;;15.70;53.99;100337.16;4976186;28;20395;-92
2023/12/27 12:01:52;;;;;;;0.40;0.40;;;;;;;15.58;54.15;100320.78;4987547;28;20030;-92
2023/12/27 12:04:33;;;;;;;0.47;0.47;;;;;;;15.50;55.05;100333.69;4987995;28;20122;-93
2023/12/27 12:07:31;;;;;;;0.40;0.40;;;;;;;15.59;54.53;100323.41;4989905;28;20063;-92
2023/12/27 12:09:56;;;;;;;0.40;0.40;;;;;;;15.25;54.50;100312.50;4988478;28;20038;-92
2023/12/27 12:12:24;;;;;;;0.40;0.40;;;;;;;15.00;56.03;100301.19;4980959;28;20050;-93
2023/12/27 12:14:53;;;;;;;0.40;0.40;;;;;;;14.78;57.14;100287.03;4991276;28;20024;-91
2023/12/27 12:17:23;;;;;;;0.40;0.40;;;;;;;14.74;57.94;100309.53;4981638;28;20042;-92
2023/12/27 12:19:50;;;;;;;0.40;0.40;;;;;;;14.70;58.86;100291.84;4988540;28;20575;-92
2023/12/27 12:22:16;;;;;;;0.40;0.40;;;;;;;14.39;58.53;100257.56;4988643;28;20053;-92
2023/12/27 12:24:43;;;;;;;0.47;0.47;;;;;;;14.37;59.65;100282.66;4970957;28;20030;-91
2023/12/27 12:27:10;;;;;;;0.50;0.50;;;;;;;14.42;60.29;100291.34;4971537;28;20026;-92
2023/12/27 12:29:36;;;;;;;0.50;0.50;;;;;;;14.34;60.49;100282.78;4981491;28;20041;-93
2023/12/27 12:32:01;;;;;;;0.40;0.40;;;;;;;14.11;59.45;100270.38;4992705;28;20014;-92
2023/12/27 12:34:27;;;;;;;0.40;0.40;;;;;;;14.11;60.34;100264.13;5006069;28;20033;-92
2023/12/27 12:36:53;;;;;;;0.40;0.40;;;;;;;14.20;59.92;100271.78;4976675;28;20023;-93
2023/12/27 12:39:19;;;;;;;0.40;0.40;;;;;;;14.08;58.45;100269.63;4971538;28;20042;-93
2023/12/27 12:41:44;;;;;;;0.45;0.45;;;;;;;14.01;59.84;100246.75;4975120;28;20027;-92
2023/12/27 12:44:10;;;;;;;0.50;0.50;;;;;;;14.06;60.99;100250.09;4986764;28;20029;-92
2023/12/27 12:46:37;;;;;;;0.40;0.40;;;;;;;14.11;60.03;100253.44;5021800;28;20086;-92
2023/12/27 12:49:05;;;;;;;0.50;0.50;;;;;;;13.90;60.16;100217.81;4973637;28;20027;-93
2023/12/27 12:51:31;;;;;;;0.40;0.40;;;;;;;13.98;59.45;100241.53;4973482;28;20031;-92
2023/12/27 12:53:56;;;;;;;0.50;0.50;;;;;;;13.80;59.33;100223.59;4980932;28;20042;-93
2023/12/27 12:56:22;;;;;;;0.50;0.50;;;;;;;13.92;60.28;100231.97;5003848;28;20032;-93
2023/12/27 12:58:48;;;;;;;0.40;0.40;;;;;;;14.14;60.69;100258.66;4991401;28;20034;-92
2023/12/27 13:01:14;;;;;;;0.50;0.50;;;;;;;14.12;60.81;100260.53;4989475;28;20028;-92
2023/12/27 13:03:44;;;;;;;0.50;0.50;;;;;;;13.97;60.79;100243.31;4989983;28;20028;-92
2023/12/27 13:06:14;;;;;;;0.50;0.50;;;;;;;14.03;61.90;100236.84;4995892;28;20023;-92
2023/12/27 13:08:40;;;;;;;0.50;0.50;;;;;;;13.96;61.21;100222.00;4971934;28;20046;-91
2023/12/27 13:11:07;;;;;;;0.50;0.50;;;;;;;13.85;60.42;100229.63;4976595;28;20077;-92
2023/12/27 13:13:33;;;;;;;0.50;0.50;;;;;;;13.67;60.50;100215.25;4992041;28;20034;-92
2023/12/27 13:15:59;;;;;;;0.50;0.50;;;;;;;13.72;59.63;100223.06;4992284;28;20027;-92
2023/12/27 13:18:25;;;;;;;0.50;0.50;;;;;;;13.81;61.08;100238.69;4992437;28;20033;-93
2023/12/27 13:20:52;;;;;;;0.50;0.50;;;;;;;13.76;62.46;100240.69;4989157;28;20102;-92
2023/12/27 13:23:18;;;;;;;0.50;0.50;;;;;;;13.63;62.04;100235.00;5010383;28;20033;-91
2023/12/27 13:25:44;;;;;;;0.50;0.50;;;;;;;13.47;62.85;100198.28;4994147;28;20029;-91
2023/12/27 13:28:09;;;;;;;0.50;0.50;;;;;;;13.64;61.57;100225.19;4994345;28;20094;-91
2023/12/27 13:30:35;;;;;;;0.50;0.50;;;;;;;13.57;62.36;100191.63;4991881;28;20037;-92
2023/12/27 13:33:02;;;;;;;0.50;0.50;;;;;;;13.63;63.13;100212.72;4991604;28;20018;-91
2023/12/27 13:35:29;;;;;;;0.50;0.50;;;;;;;13.63;63.00;100207.38;4990015;28;20023;-92
2023/12/27 13:37:55;;;;;;;0.50;0.50;;;;;;;13.46;61.91;100205.41;5008960;28;20030;-91
2023/12/27 13:40:20;;;;;;;0.50;0.50;;;;;;;13.39;62.98;100195.94;4983396;28;20059;-91
2023/12/27 13:42:46;;;;;;;0.50;0.50;;;;;;;13.28;62.72;100191.97;4989226;28;20488;-92
2023/12/27 13:45:11;;;;;;;0.50;0.50;;;;;;;13.38;63.56;100196.84;4972323;28;20094;-92
2023/12/27 13:47:36;;;;;;;0.50;0.50;;;;;;;13.33;64.31;100187.31;4972889;28;20030;-92
2023/12/27 13:50:02;;;;;;;0.50;0.50;;;;;;;13.21;62.20;100188.66;4979377;28;20039;-92
2023/12/27 13:52:28;;;;;;;0.50;0.50;;;;;;;12.98;64.03;100136.13;4989197;28;20014;-91
2023/12/27 13:54:54;;;;;;;0.50;0.50;;;;;;;13.27;65.20;100183.06;4979832;28;20062;-92